Terminal Aerodrome Forecast
Issued by NWS

Home | Current Version | Previous Version | Text Only | Print | Product List | Glossary On
Versions: 1 2 3 4 5 6 7 8 9 10 11 12 13 14 15 16
092
FTUS41 KCAR 241133
TAFPQI
TAF
KPQI 241133Z 2412/2512 17008KT 5SM -RA BR OVC005
      TEMPO 2412/2414 3SM -RA BR OVC004
     FM241400 24008KT P6SM VCSH OVC006
     FM241600 26010KT P6SM VCSH BKN015 OVC025
     FM241800 27010G18KT P6SM BKN035
     FM250000 27008KT P6SM BKN040
     FM250600 27007KT P6SM SCT050=

USA.gov is the U.S. government's official web portal to all federal, state and local government web resources and services.